• Join FlightAware (Why Join?)
  • Login
  • US Flag 
Gobble Gobble! 
12:06PM EST


 

Airport Tracker/Info


-or-


 

Live Flight TrackerFlight Track Log ✈ SWA3497 ✈ 15-Apr-2013 ✈ KBWI - KALB

Flight Track Log - Related Links

Times and Time Zones

All times are in EDT time to prevent confusion due to time zone crossing. See the SWA3497 flight status page for this flight to view local times or setup timezone preferences in your user account.

Time Position Orientation Groundspeed Altitude Reporting Facility
EDT Latitude Longitude Course Direction KTS MPH feet Rate Location/Type
04:20PM 39.1500 -76.6500 117° Southeast 149 171 1,500  Level Potomac TRACON
04:23PM 39.1014 -76.5250 117° Southeast 207 238 8,500 3,120 Climbing Washington Center
04:25PM 39.1406 -76.2900 78° East 288 331 14,300 2,940 Climbing Washington Center
04:26PM 39.1600 -76.1564 79° East 329 379 17,400 3,000 Climbing Washington Center
04:27PM 39.1961 -76.0256 70° East 372 428 20,300 2,580 Climbing Washington Center
04:28PM 39.2672 -75.9133 51° Northeast 377 434 22,600 2,700 Climbing Washington Center
04:29PM 39.3425 -75.8008 49° Northeast 396 456 25,700 2,160 Climbing Washington Center
04:30PM 39.4219 -75.6883 48° Northeast 401 461 27,000 600 Climbing Washington Center
04:31PM 39.4989 -75.5700 50° Northeast 412 474 27,000  Level Washington Center
04:32PM 39.5758 -75.4542 49° Northeast 422 486 27,000  Level Washington Center
04:33PM 39.6806 -75.2997 49° Northeast 418 481 27,000  Level New York Center
04:34PM 39.7533 -75.1911 49° Northeast 413 475 27,000  Level New York Center
04:35PM 39.8244 -75.0767 51° Northeast 413 475 27,000  Level New York Center
04:36PM 39.9014 -74.9622 49° Northeast 413 475 27,000  Level New York Center
04:37PM 39.9831 -74.8372 50° Northeast 413 475 27,000  Level New York Center
04:38PM 40.0533 -74.7275 50° Northeast 406 467 27,000  Level New York Center
04:39PM 40.1194 -74.6225 51° Northeast 406 467 27,000  Level New York Center
04:40PM 40.1939 -74.5100 49° Northeast 412 474 27,000  Level New York Center
04:41PM 40.2911 -74.4008 41° Northeast 412 474 27,000  Level New York Center
04:42PM 40.3772 -74.3100 39° Northeast 406 467 27,000  Level New York Center
04:43PM 40.4656 -74.2164 39° Northeast 400 460 27,000 -300 Level New York Center
04:45PM 40.5794 -74.0878 41° Northeast 391 450 26,300 -780 Descending Boston Center
04:46PM 40.6831 -73.9836 37° Northeast 385 443 25,000 -1,200 Descending Boston Center
04:47PM 40.7675 -73.8953 38° Northeast 385 443 24,000 -540 Descending Boston Center
04:48PM 40.8481 -73.7956 43° Northeast 385 443 24,000 -240 Level Boston Center
04:49PM 40.9303 -73.7011 41° Northeast 385 443 23,600 -600 Descending Boston Center
04:50PM 41.0269 -73.6453 24° Northeast 379 436 22,900 -300 Descending Boston Center
04:51PM 41.1211 -73.5972 21° North 364 419 23,000 -480 Climbing Boston Center
04:52PM 41.2153 -73.5467 22° Northeast 364 419 22,000 -1,020 Descending Boston Center
04:53PM 41.3097 -73.4983 21° North 359 413 21,000 -1,620 Descending Boston Center
04:54PM 41.4122 -73.4614 15° North 354 407 18,800 -1,500 Descending Boston Center
04:55PM 41.5078 -73.4714 356° North 338 389 18,000 -420 Descending Boston Center
04:56PM 41.6058 -73.4783 357° North 347 399 18,000 -300 Level Boston Center
04:57PM 41.7058 -73.4883 356° North 347 399 17,400 -780 Descending Boston Center
04:58PM 41.7994 -73.4983 355° North 353 406 16,500 -1,200 Descending Boston Center
04:59PM 41.8994 -73.5083 356° North 348 400 15,100 -1,500 Descending Boston Center
05:00PM 41.9972 -73.5156 357° North 348 400 13,300 -1,860 Descending Boston Center
05:01PM 42.1033 -73.5286 355° North 335 386 11,100 -1,260 Descending Boston Center
05:02PM 42.1844 -73.5439 352° North 319 367 11,000 -420 Descending Boston Center
05:03PM 42.2761 -73.5681 349° North 300 345 10,300 -960 Descending Boston Center
05:04PM 42.3550 -73.5892 349° North 299 344 9,000 -1,440 Descending Boston Center
05:05PM 42.4300 -73.5989 355° North 279 321 7,500 -1,440 Descending Boston Center
05:06PM 42.5111 -73.6033 358° North 272 313 6,100 -1,500 Descending Boston Center
05:07PM 42.5839 -73.6244 348° North 272 313 4,500 -1,500 Descending Boston Center
05:08PM 42.6567 -73.6483 346° North 272 313 3,200 -840 Descending Boston Center
05:09PM 42.7231 -73.6750 344° North 260 299 2,900 -360 Descending Boston Center
05:09PM 42.7353 -73.6867 325° Northwest 233 268 2,800 -540 Descending Boston Center
05:10PM 42.7706 -73.7128 331° Northwest 211 243 2,400 -660 Descending Boston Center
05:11PM 42.7972 -73.7417 322° Northwest 147 169 1,800  Descending Boston Center
05:11PM 42.8222 -73.7450 354° North 211 243 2,400 -660 Climbing Boston Center
05:12PM 42.7944 -73.8011 236° Southwest 135 155 1,000 -1,080 Descending Boston Center
05:13PM 42.7589 -73.8058 186° South 124 143 300 10,860 Descending Boston Center
05:14PM 42.9772 -73.8561 350° North 211 243 23,000 22,320 Climbing Boston Center